Time;durP1;ratioP1;P1;durP2;ratioP2;P2;SDS_P1;SDS_P2;PMS_P1;PMS_P2;Temp;Humidity;BMP_temperature;BMP_pressure;BME280_temperature;BME280_humidity;BME280_pressure;Samples;Min_cycle;Max_cycle;Signal;HPM_P1;HPM_P2
2021/11/21 00:01:06;;;;;;;212.25;194.98;;;8.50;99.90;;;;;;5098499;28;20960;-84
2021/11/21 00:03:35;;;;;;;206.52;189.05;;;8.50;99.90;;;;;;5098617;28;20511;-84
2021/11/21 00:06:05;;;;;;;214.25;196.50;;;8.40;99.90;;;;;;5098418;28;20546;-84
2021/11/21 00:08:36;;;;;;;185.82;169.77;;;8.40;99.90;;;;;;5097963;28;20216;-84
2021/11/21 00:11:05;;;;;;;198.95;182.70;;;8.40;99.90;;;;;;5099031;28;20152;-84
2021/11/21 00:13:31;;;;;;;233.07;214.88;;;8.40;99.90;;;;;;5098960;28;20204;-84
2021/11/21 00:16:00;;;;;;;217.90;200.93;;;8.40;99.90;;;;;;5098996;28;20163;-85
2021/11/21 00:18:29;;;;;;;324.92;303.60;;;8.30;99.90;;;;;;5097685;28;20417;-84
2021/11/21 00:20:57;;;;;;;288.10;268.20;;;8.20;99.90;;;;;;5098127;28;20167;-84
2021/11/21 00:23:23;;;;;;;284.60;264.45;;;8.20;99.90;;;;;;5097115;28;20170;-84
2021/11/21 00:25:49;;;;;;;255.67;237.37;;;8.30;99.90;;;;;;5097572;28;20630;-83
2021/11/21 00:28:18;;;;;;;298.20;278.33;;;8.20;99.90;;;;;;5097473;28;20403;-82
2021/11/21 00:30:44;;;;;;;279.88;260.65;;;8.20;99.90;;;;;;5096740;28;20534;-84
2021/11/21 00:33:21;;;;;;;256.43;237.90;;;8.30;99.90;;;;;;5098386;28;20201;-84
2021/11/21 00:35:55;;;;;;;235.00;217.40;;;8.30;99.90;;;;;;5098975;28;20630;-84
2021/11/21 00:38:26;;;;;;;275.05;254.95;;;8.30;99.90;;;;;;5098215;28;20151;-84
2021/11/21 00:40:55;;;;;;;229.50;212.02;;;8.30;99.90;;;;;;5096712;28;20152;-85
2021/11/21 00:43:27;;;;;;;218.65;201.07;;;8.30;99.90;;;;;;5096566;28;20166;-84
2021/11/21 00:45:56;;;;;;;217.00;199.85;;;8.40;99.90;;;;;;5098185;28;20194;-84
2021/11/21 00:48:22;;;;;;;227.73;209.93;;;8.30;99.90;;;;;;5097513;28;20155;-84
2021/11/21 00:50:57;;;;;;;210.77;194.45;;;8.30;99.90;;;;;;5097349;28;20171;-84
2021/11/21 00:53:30;;;;;;;179.63;163.85;;;8.30;99.90;;;;;;5097345;28;20171;-85
2021/11/21 00:56:03;;;;;;;171.13;156.15;;;8.30;99.90;;;;;;5105824;28;20151;-85
2021/11/21 00:58:30;;;;;;;166.43;151.40;;;8.30;99.90;;;;;;5097589;28;20186;-84
2021/11/21 01:00:59;;;;;;;197.98;181.23;;;8.20;99.90;;;;;;5097053;28;20190;-84
2021/11/21 01:03:26;;;;;;;213.13;195.75;;;8.30;99.90;;;;;;5096214;28;20178;-84
2021/11/21 01:05:57;;;;;;;204.15;187.13;;;8.20;99.90;;;;;;5097382;28;20160;-84
2021/11/21 01:08:26;;;;;;;167.82;152.55;;;8.20;99.90;;;;;;5097858;28;20151;-84
2021/11/21 01:10:59;;;;;;;221.55;204.80;;;8.30;99.90;;;;;;5096844;28;20159;-84
2021/11/21 01:13:28;;;;;;;201.50;184.95;;;8.20;99.90;;;;;;5097743;28;20242;-84
2021/11/21 01:15:59;;;;;;;207.95;191.40;;;8.30;99.90;;;;;;5097633;28;20162;-84
2021/11/21 01:18:27;;;;;;;230.20;213.18;;;8.30;99.90;;;;;;5098122;28;20162;-84
2021/11/21 01:20:53;;;;;;;242.23;224.68;;;8.20;99.90;;;;;;5096893;28;20524;-84
2021/11/21 01:23:23;;;;;;;204.67;188.20;;;8.20;99.90;;;;;;5096538;28;20167;-85
2021/11/21 01:25:52;;;;;;;208.88;191.98;;;8.20;99.90;;;;;;5096281;28;20401;-84
2021/11/21 01:28:18;;;;;;;164.45;149.80;;;8.20;99.90;;;;;;5096035;28;20167;-84
2021/11/21 01:30:47;;;;;;;127.97;114.07;;;8.30;99.90;;;;;;5096589;28;20167;-84
2021/11/21 01:33:13;;;;;;;148.57;134.85;;;8.40;99.90;;;;;;5097100;28;20538;-84
2021/11/21 01:35:47;;;;;;;119.00;106.33;;;8.50;99.90;;;;;;5097827;28;20159;-84
2021/11/21 01:38:13;;;;;;;119.20;106.55;;;8.50;99.90;;;;;;5096806;28;20401;-84
2021/11/21 01:40:39;;;;;;;119.00;106.05;;;8.50;99.90;;;;;;5097343;28;20511;-85
2021/11/21 01:43:06;;;;;;;118.18;105.43;;;8.40;99.90;;;;;;5097645;28;20261;-84
2021/11/21 01:45:32;;;;;;;124.63;111.35;;;8.50;99.90;;;;;;5097421;28;20163;-84
2021/11/21 01:47:59;;;;;;;129.13;115.90;;;8.50;99.90;;;;;;5079324;28;20194;-84
2021/11/21 01:50:31;;;;;;;130.63;117.57;;;8.50;99.90;;;;;;5096035;28;20421;-84
2021/11/21 01:52:57;;;;;;;114.93;102.68;;;8.50;99.90;;;;;;5097557;28;20159;-85
2021/11/21 01:55:24;;;;;;;162.23;147.87;;;8.60;99.90;;;;;;5096216;28;20175;-84
2021/11/21 01:57:55;;;;;;;168.63;154.00;;;8.60;99.90;;;;;;5097293;28;20428;-84
2021/11/21 02:00:22;;;;;;;163.30;148.55;;;8.60;99.90;;;;;;5097491;28;20178;-84
2021/11/21 02:02:48;;;;;;;145.05;131.43;;;8.60;99.90;;;;;;5096660;28;20191;-84
2021/11/21 02:05:14;;;;;;;140.30;126.83;;;8.60;99.90;;;;;;5097803;28;20204;-84
2021/11/21 02:07:42;;;;;;;137.30;124.27;;;8.70;99.90;;;;;;5102551;28;20433;-84
2021/11/21 02:10:11;;;;;;;162.43;148.00;;;8.60;99.90;;;;;;5103919;28;20221;-84
2021/11/21 02:12:38;;;;;;;144.93;131.60;;;8.60;99.90;;;;;;5104656;28;20167;-84
2021/11/21 02:15:08;;;;;;;148.25;134.48;;;8.60;99.90;;;;;;5104554;28;20525;-84
2021/11/21 02:17:35;;;;;;;120.50;108.30;;;8.70;99.90;;;;;;5102488;28;20175;-84
2021/11/21 02:20:09;;;;;;;142.23;129.00;;;8.70;99.90;;;;;;5104315;28;20239;-84
2021/11/21 02:22:38;;;;;;;146.68;132.82;;;8.60;99.90;;;;;;5104663;28;20223;-84
2021/11/21 02:25:04;;;;;;;149.48;135.98;;;8.60;99.90;;;;;;5104834;28;20155;-84
2021/11/21 02:27:31;;;;;;;152.15;138.85;;;8.60;99.90;;;;;;5105226;28;20246;-85
2021/11/21 02:29:57;;;;;;;142.77;129.38;;;8.60;99.90;;;;;;5105017;28;20232;-85
2021/11/21 02:32:24;;;;;;;164.45;150.38;;;8.50;99.90;;;;;;5103209;28;20171;-84
2021/11/21 02:34:50;;;;;;;136.68;123.88;;;8.50;99.90;;;;;;5104388;28;20218;-84
2021/11/21 02:37:16;;;;;;;143.53;129.93;;;8.50;99.90;;;;;;5103256;28;20193;-84
2021/11/21 02:39:42;;;;;;;138.67;125.60;;;8.60;99.90;;;;;;5102937;28;20261;-84
2021/11/21 02:42:26;;;;;;;127.68;114.97;;;8.60;99.90;;;;;;5101780;28;20443;-84
2021/11/21 02:44:56;;;;;;;132.73;119.90;;;8.60;99.90;;;;;;5103124;28;20181;-84
2021/11/21 02:47:22;;;;;;;145.88;132.15;;;8.60;99.90;;;;;;5102172;28;20513;-84
2021/11/21 02:49:48;;;;;;;147.73;134.30;;;8.60;99.90;;;;;;5110012;28;20187;-84
2021/11/21 02:52:17;;;;;;;157.40;143.88;;;8.50;99.90;;;;;;5107515;28;20200;-84
2021/11/21 03:04:33;;;;;;;149.25;135.65;;;8.50;99.90;;;;;;4963242;28;20730;-85
2021/11/21 03:24:35;;;;;;;132.18;119.03;;;8.60;99.90;;;;;;5080298;28;20684;-85
2021/11/21 03:34:51;;;;;;;;;;;;;;;;;;;;;
2021/11/21 03:37:41;;;;;;;123.85;110.93;;;8.50;99.90;;;;;;4921597;29;20272;-84
2021/11/21 03:43:51;;;;;;;112.72;99.47;;;8.50;99.90;;;;;;5100297;28;20178;-85
2021/11/21 03:46:47;;;;;;;110.43;93.70;;;8.50;99.90;;;;;;5100396;28;20553;-85
2021/11/21 03:57:10;;;;;;;120.00;106.47;;;8.50;99.90;;;;;;5086664;28;20171;-85
2021/11/21 03:59:57;;;;;;;116.15;103.57;;;8.50;99.90;;;;;;5312782;22;20214;-84
2021/11/21 04:06:01;;;;;;;117.05;104.70;;;8.50;99.90;;;;;;5099791;28;20511;-85
2021/11/21 04:08:36;;;;;;;116.60;97.53;;;8.50;99.90;;;;;;5057191;28;20181;-85
2021/11/21 04:11:52;;;;;;;112.78;89.00;;;8.50;99.90;;;;;;5057492;28;20232;-84
2021/11/21 04:15:24;;;;;;;111.13;89.78;;;8.40;99.90;;;;;;5099498;28;20171;-85
2021/11/21 04:26:49;;;;;;;;;;;;;;;;;;;;;
2021/11/21 04:29:55;;;;;;;116.72;101.75;;;8.40;99.90;;;;;;4837905;29;20210;-85
2021/11/21 04:33:13;;;;;;;;;;;;;;;;;;;;;
2021/11/21 04:36:04;;;;;;;161.57;146.82;;;8.40;99.90;;;;;;4985264;28;20262;-84
2021/11/21 04:51:04;;;;;;;190.85;175.15;;;8.40;99.90;;;;;;5102307;22;20241;-85
2021/11/21 04:54:23;;;;;;;200.27;183.95;;;8.40;99.90;;;;;;4975832;28;20177;-85
2021/11/21 05:00:10;;;;;;;183.00;167.70;;;8.40;99.90;;;;;;5076432;28;20217;-85
2021/11/21 05:03:25;;;;;;;165.20;151.07;;;8.40;99.90;;;;;;5096087;28;20264;-85
2021/11/21 05:06:44;;;;;;;161.57;147.43;;;8.50;99.90;;;;;;5056529;28;20537;-85
2021/11/21 05:12:52;;;;;;;203.85;187.88;;;8.50;99.90;;;;;;5017453;28;20209;-85
2021/11/21 05:15:00;;;;;;;158.82;144.82;;;8.40;99.90;;;;;;5001918;28;20546;-85
2021/11/21 05:21:25;;;;;;;;;;;;;;;;;;;;;
2021/11/21 05:24:48;;;;;;;236.85;220.13;;;8.30;99.90;;;;;;4964439;28;20277;-85
2021/11/21 05:27:43;;;;;;;;;;;;;;;;;;;;;
2021/11/21 05:31:19;;;;;;;297.17;278.10;;;8.30;99.90;;;;;;4997795;28;20614;-85
2021/11/21 05:34:41;;;;;;;;;;;;;;;;;;;;;
2021/11/21 05:43:58;;;;;;;147.50;133.75;;;8.40;99.90;;;;;;5076494;28;20211;-85
2021/11/21 05:57:09;;;;;;;153.18;139.52;;;8.30;99.90;;;;;;5015805;28;20180;-85
2021/11/21 06:01:12;;;;;;;;;;;;;;;;;;;;;
2021/11/21 06:04:16;;;;;;;102.88;87.55;;;8.30;99.90;;;;;;4930554;29;20223;-85
2021/11/21 06:10:51;;;;;;;120.72;108.45;;;8.50;99.90;;;;;;5080560;23;20274;-85
2021/11/21 06:13:50;;;;;;;120.00;107.80;;;8.40;99.90;;;;;;5099017;28;20181;-85
2021/11/21 06:16:36;;;;;;;105.82;92.25;;;8.50;99.90;;;;;;5099758;28;20163;-85
2021/11/21 06:23:16;;;;;;;99.63;84.90;;;8.50;99.90;;;;;;5034854;28;20596;-85
2021/11/21 06:25:50;;;;;;;106.25;86.00;;;8.50;99.90;;;;;;5026223;28;20224;-84
2021/11/21 06:31:46;;;;;;;101.85;80.40;;;8.50;99.90;;;;;;5081911;28;20656;-84
2021/11/21 06:34:46;;;;;;;106.07;94.18;;;8.50;99.90;;;;;;5137728;28;20544;-85
2021/11/21 06:37:48;;;;;;;107.72;95.93;;;8.50;99.90;;;;;;5120172;28;20178;-85
2021/11/21 06:44:38;;;;;;;;;;;;;;;;;;;;;
2021/11/21 06:47:50;;;;;;;;;;;;;;;;;;;;;
2021/11/21 06:54:31;;;;;;;110.55;95.05;;;8.50;99.90;;;;;;5038958;28;20156;-84
2021/11/21 07:07:30;;;;;;;124.63;111.45;;;8.50;99.90;;;;;;5038656;28;20211;-84
2021/11/21 07:17:42;;;;;;;110.45;98.85;;;8.50;99.90;;;;;;5015710;28;20235;-84
2021/11/21 07:38:12;;;;;;;114.85;102.45;;;8.60;99.90;;;;;;4814452;29;20257;-84
2021/11/21 07:41:39;;;;;;;;;;;;;;;;;;;;;
2021/11/21 07:44:40;;;;;;;116.18;103.97;;;8.60;99.90;;;;;;4846233;29;20304;-84
2021/11/21 07:47:40;;;;;;;;;;;;;;;;;;;;;
2021/11/21 07:50:48;;;;;;;;;;;;;;;;;;;;;
2021/11/21 07:54:12;;;;;;;;;;;;;;;;;;;;;
2021/11/21 08:11:50;;;;;;;108.15;92.20;;;8.60;99.90;;;;;;4920299;29;20204;-84
2021/11/21 08:14:55;;;;;;;;;;;;;;;;;;;;;
2021/11/21 08:21:39;;;;;;;112.50;100.35;;;8.70;99.90;;;;;;5017292;28;20325;-84
2021/11/21 08:28:38;;;;;;;;;;;;;;;;;;;;;
2021/11/21 08:31:53;;;;;;;114.63;102.03;;;8.70;99.90;;;;;;5016115;28;20276;-84
2021/11/21 08:38:25;;;;;;;106.38;88.93;;;8.70;99.90;;;;;;4935642;28;20228;-84
2021/11/21 08:52:33;;;;;;;;;;;;;;;;;;;;;
2021/11/21 08:55:00;;;;;;;106.45;93.05;;;8.80;99.90;;;;;;5124617;22;20766;-86
2021/11/21 08:57:26;;;;;;;121.80;109.07;;;8.70;99.90;;;;;;5107514;28;20218;-84
2021/11/21 08:59:51;;;;;;;135.23;121.47;;;8.70;99.90;;;;;;5117912;27;20427;-84
2021/11/21 09:02:17;;;;;;;159.10;144.50;;;8.70;99.90;;;;;;5141703;27;20197;-84
2021/11/21 09:04:43;;;;;;;115.63;103.27;;;8.80;99.90;;;;;;5142733;27;20403;-84
2021/11/21 09:07:08;;;;;;;148.00;133.70;;;8.80;99.90;;;;;;5141336;27;20165;-85
2021/11/21 09:09:37;;;;;;;151.07;137.30;;;8.80;99.90;;;;;;5140816;27;20544;-85
2021/11/21 09:12:03;;;;;;;168.90;154.10;;;8.80;99.90;;;;;;5142570;27;20166;-85
2021/11/21 09:14:29;;;;;;;205.73;189.57;;;8.80;99.90;;;;;;5142046;27;20162;-85
2021/11/21 09:16:55;;;;;;;171.23;157.00;;;8.90;99.90;;;;;;5143041;27;20671;-85
2021/11/21 09:19:24;;;;;;;158.60;144.60;;;8.90;99.90;;;;;;5143844;27;20212;-85
2021/11/21 09:21:50;;;;;;;152.02;138.32;;;8.90;99.90;;;;;;5125572;27;20468;-85
2021/11/21 09:24:16;;;;;;;157.23;143.87;;;8.90;99.90;;;;;;5143862;27;20225;-85
2021/11/21 09:26:41;;;;;;;164.35;149.80;;;9.00;99.90;;;;;;5144104;27;20494;-85
2021/11/21 09:29:08;;;;;;;159.20;144.33;;;8.90;99.90;;;;;;5143661;27;20205;-85
2021/11/21 09:31:34;;;;;;;219.07;202.55;;;8.90;99.90;;;;;;5142358;27;20215;-85
2021/11/21 09:34:00;;;;;;;216.53;200.23;;;8.90;99.90;;;;;;5143256;27;20199;-85
2021/11/21 09:36:26;;;;;;;180.90;166.05;;;8.90;99.90;;;;;;5141882;27;20161;-85
2021/11/21 09:38:52;;;;;;;227.17;210.03;;;8.90;99.90;;;;;;5143499;27;20697;-86
2021/11/21 09:41:18;;;;;;;198.10;182.40;;;8.90;99.90;;;;;;5143592;27;20403;-85
2021/11/21 09:43:44;;;;;;;163.00;148.90;;;8.90;99.90;;;;;;5124656;27;20185;-85
2021/11/21 09:46:11;;;;;;;216.27;200.23;;;8.90;99.90;;;;;;5124703;27;20157;-85
2021/11/21 09:48:37;;;;;;;218.30;201.18;;;8.90;99.90;;;;;;5124369;27;20186;-85
2021/11/21 09:51:04;;;;;;;226.77;209.98;;;8.90;99.90;;;;;;5142781;27;20241;-85
2021/11/21 09:53:30;;;;;;;240.48;223.82;;;8.90;99.90;;;;;;5124123;27;20173;-85
2021/11/21 09:55:58;;;;;;;236.53;219.67;;;8.90;99.90;;;;;;5123514;28;20181;-85
2021/11/21 09:58:25;;;;;;;324.65;304.48;;;8.80;99.90;;;;;;5141959;27;20450;-85
2021/11/21 10:00:50;;;;;;;321.55;302.27;;;8.80;99.90;;;;;;5141783;27;20161;-85
2021/11/21 10:03:18;;;;;;;360.30;339.27;;;8.70;99.90;;;;;;5141890;27;20189;-85
2021/11/21 10:05:47;;;;;;;340.25;320.60;;;8.80;99.90;;;;;;5141978;28;20161;-85
2021/11/21 10:08:15;;;;;;;322.80;303.33;;;8.80;99.90;;;;;;5123568;28;20166;-85
2021/11/21 10:10:52;;;;;;;338.50;318.50;;;8.80;99.90;;;;;;5142409;28;20154;-85
2021/11/21 10:13:41;;;;;;;286.77;268.70;;;8.90;99.90;;;;;;5141503;28;20169;-85
2021/11/21 10:16:18;;;;;;;338.25;318.35;;;9.00;99.90;;;;;;5141967;28;20223;-85
2021/11/21 10:19:13;;;;;;;319.10;300.02;;;9.00;99.90;;;;;;5144432;28;20248;-85
2021/11/21 10:21:54;;;;;;;326.88;307.33;;;8.90;99.90;;;;;;5104071;28;20209;-85
2021/11/21 10:24:30;;;;;;;318.10;298.85;;;8.90;99.90;;;;;;5126152;28;20257;-85
2021/11/21 10:27:04;;;;;;;367.95;346.70;;;8.90;99.90;;;;;;5146143;27;20150;-85
2021/11/21 10:29:36;;;;;;;308.17;289.48;;;9.00;99.90;;;;;;5148392;27;20227;-85
2021/11/21 10:32:21;;;;;;;345.67;325.92;;;9.00;99.90;;;;;;5148231;27;20190;-85
2021/11/21 10:34:57;;;;;;;333.80;314.20;;;9.00;99.90;;;;;;5128540;27;20311;-85
2021/11/21 10:37:33;;;;;;;377.15;355.50;;;9.00;99.90;;;;;;5146858;27;20170;-85
2021/11/21 10:40:14;;;;;;;360.90;339.77;;;9.10;99.90;;;;;;5129004;27;20265;-85
2021/11/21 10:42:43;;;;;;;340.67;321.13;;;9.10;99.90;;;;;;5146626;27;20284;-85
2021/11/21 10:45:11;;;;;;;295.63;277.50;;;9.10;99.90;;;;;;5146272;27;20182;-86
2021/11/21 10:47:53;;;;;;;323.05;303.83;;;9.20;99.90;;;;;;5146061;27;20165;-85
2021/11/21 10:50:36;;;;;;;322.88;303.42;;;9.20;99.90;;;;;;5146641;27;20227;-86
2021/11/21 10:53:06;;;;;;;376.92;355.42;;;9.30;99.90;;;;;;5128658;27;20174;-85
2021/11/21 10:55:32;;;;;;;318.42;299.42;;;9.30;99.90;;;;;;5128094;27;20227;-85
2021/11/21 10:58:12;;;;;;;304.17;285.53;;;9.40;99.90;;;;;;5146949;27;20166;-85
2021/11/21 11:00:38;;;;;;;262.10;244.57;;;9.40;99.90;;;;;;5128370;27;20634;-85
2021/11/21 11:03:14;;;;;;;260.83;243.55;;;9.40;99.90;;;;;;5127616;27;20224;-85
2021/11/21 11:05:39;;;;;;;263.02;245.50;;;9.30;99.90;;;;;;5146628;27;20145;-85
2021/11/21 11:08:06;;;;;;;298.30;279.37;;;9.30;99.90;;;;;;5128374;27;20162;-85
2021/11/21 11:10:34;;;;;;;304.25;285.50;;;9.30;99.90;;;;;;5146742;27;20550;-85
2021/11/21 11:13:04;;;;;;;291.30;273.33;;;9.30;99.90;;;;;;5146699;27;20592;-85
2021/11/21 11:15:32;;;;;;;319.05;299.45;;;9.30;99.90;;;;;;5146705;27;20173;-85
2021/11/21 11:17:58;;;;;;;292.25;274.00;;;9.30;99.90;;;;;;5196094;22;20214;-85
2021/11/21 11:20:25;;;;;;;256.73;239.73;;;9.30;99.90;;;;;;5138797;27;20181;-85
2021/11/21 11:22:51;;;;;;;242.10;225.57;;;9.30;99.90;;;;;;5166948;27;20550;-85
2021/11/21 11:25:23;;;;;;;304.30;285.10;;;9.30;99.90;;;;;;5166421;27;20168;-85
2021/11/21 11:28:11;;;;;;;282.83;264.67;;;9.30;99.90;;;;;;5148287;27;20176;-85
2021/11/21 11:30:40;;;;;;;328.77;309.50;;;9.30;99.90;;;;;;5165821;27;20189;-85
2021/11/21 11:33:08;;;;;;;321.10;301.65;;;9.30;99.90;;;;;;5147717;27;20171;-85
2021/11/21 11:35:35;;;;;;;328.55;309.15;;;9.30;99.90;;;;;;5147091;27;20175;-85
2021/11/21 11:38:15;;;;;;;334.77;313.38;;;9.30;99.90;;;;;;5165927;27;20177;-85
2021/11/21 11:40:50;;;;;;;333.90;314.45;;;9.40;99.90;;;;;;5166600;27;20169;-85
2021/11/21 11:43:15;;;;;;;346.80;326.75;;;9.40;99.90;;;;;;5166927;27;20189;-85
2021/11/21 11:45:46;;;;;;;296.30;278.00;;;9.40;99.90;;;;;;5166643;27;20192;-85
2021/11/21 11:48:35;;;;;;;364.55;343.52;;;9.40;99.90;;;;;;5165368;27;20166;-85
2021/11/21 11:51:17;;;;;;;326.10;306.75;;;9.50;99.90;;;;;;5165623;27;20624;-85
2021/11/21 11:53:45;;;;;;;338.85;318.42;;;9.50;99.90;;;;;;5147319;27;20190;-85
2021/11/21 11:56:44;;;;;;;342.33;322.02;;;9.50;99.90;;;;;;5166364;27;20165;-85
2021/11/21 11:59:37;;;;;;;363.73;342.38;;;9.40;99.90;;;;;;5153708;27;20194;-85
2021/11/21 12:02:23;;;;;;;326.75;307.33;;;9.40;99.90;;;;;;5147877;27;20197;-86
2021/11/21 12:04:50;;;;;;;304.27;285.90;;;9.40;99.90;;;;;;5148323;27;20198;-85
2021/11/21 12:07:22;;;;;;;347.02;327.20;;;9.40;99.90;;;;;;5166232;27;20232;-85
2021/11/21 12:10:19;;;;;;;338.50;319.15;;;9.40;99.90;;;;;;5166546;27;20183;-85
2021/11/21 12:13:05;;;;;;;339.63;319.48;;;9.40;99.90;;;;;;5166273;27;20153;-85
2021/11/21 12:15:55;;;;;;;295.02;276.83;;;9.40;99.90;;;;;;5166456;27;20213;-85
2021/11/21 12:18:42;;;;;;;260.80;243.68;;;9.50;99.90;;;;;;5148512;27;20181;-85
2021/11/21 12:21:08;;;;;;;331.67;311.63;;;9.50;99.90;;;;;;5164139;27;20169;-85
2021/11/21 12:23:42;;;;;;;308.17;289.43;;;9.40;99.90;;;;;;5146627;27;20573;-85
2021/11/21 12:26:36;;;;;;;309.70;290.67;;;9.40;99.90;;;;;;5147848;27;20682;-85
2021/11/21 12:29:19;;;;;;;294.52;276.60;;;9.40;99.90;;;;;;5165366;27;20204;-85
2021/11/21 12:31:47;;;;;;;323.17;304.58;;;9.30;99.90;;;;;;5167064;27;20229;-85
2021/11/21 12:34:43;;;;;;;339.50;319.83;;;9.30;99.90;;;;;;5162515;27;20166;-85
2021/11/21 12:37:15;;;;;;;338.85;319.13;;;9.20;99.90;;;;;;5143776;27;20153;-85
2021/11/21 12:39:47;;;;;;;317.02;297.70;;;9.20;99.90;;;;;;5161961;27;20200;-85
2021/11/21 12:42:16;;;;;;;289.23;271.60;;;9.20;99.90;;;;;;5161952;27;20173;-85
2021/11/21 12:44:43;;;;;;;312.90;293.85;;;9.20;99.90;;;;;;5161310;27;20655;-85
2021/11/21 12:47:10;;;;;;;254.10;236.68;;;9.10;99.90;;;;;;5144913;27;20314;-85
2021/11/21 12:49:38;;;;;;;246.20;229.23;;;9.20;99.90;;;;;;5166239;27;20256;-85
2021/11/21 12:52:16;;;;;;;263.27;245.38;;;9.20;99.90;;;;;;5146935;27;20173;-85
2021/11/21 12:54:42;;;;;;;300.95;282.77;;;9.20;99.90;;;;;;5166507;27;20163;-85
2021/11/21 12:57:09;;;;;;;321.52;303.38;;;9.30;99.90;;;;;;5164689;27;20180;-85
2021/11/21 12:59:57;;;;;;;344.55;324.65;;;9.20;99.90;;;;;;5161862;27;20184;-85
2021/11/21 13:02:27;;;;;;;292.55;275.02;;;9.20;99.90;;;;;;5145311;27;20193;-85
2021/11/21 13:04:57;;;;;;;303.25;285.33;;;9.30;99.90;;;;;;5145926;27;20158;-85
2021/11/21 13:07:28;;;;;;;284.50;266.70;;;9.30;99.90;;;;;;5145765;27;20251;-85
2021/11/21 13:10:15;;;;;;;245.70;229.55;;;9.40;99.90;;;;;;5164088;27;20177;-85
2021/11/21 13:12:43;;;;;;;219.60;203.98;;;9.50;99.90;;;;;;5164078;27;20172;-85
2021/11/21 13:15:16;;;;;;;164.02;150.25;;;9.50;99.90;;;;;;5145407;27;20173;-85
2021/11/21 13:18:03;;;;;;;117.45;105.50;;;9.60;99.90;;;;;;5164049;27;20640;-85
2021/11/21 13:20:29;;;;;;;113.78;101.97;;;9.70;99.90;;;;;;5163734;27;20191;-85
2021/11/21 13:23:00;;;;;;;102.17;87.53;;;9.70;99.90;;;;;;5163835;27;20553;-85
2021/11/21 13:25:43;;;;;;;103.05;92.03;;;9.70;99.90;;;;;;5145705;27;20395;-85
2021/11/21 13:28:28;;;;;;;99.60;87.57;;;9.80;99.90;;;;;;5163825;27;20146;-85
2021/11/21 13:31:00;;;;;;;109.57;97.70;;;9.90;99.90;;;;;;5164354;27;20314;-85
2021/11/21 13:33:35;;;;;;;116.70;105.25;;;9.80;99.90;;;;;;5164814;27;20149;-85
2021/11/21 13:36:04;;;;;;;106.45;95.18;;;9.80;99.90;;;;;;5146090;27;20201;-85
2021/11/21 13:38:30;;;;;;;127.15;114.60;;;9.70;99.90;;;;;;5163630;27;20165;-85
2021/11/21 13:40:58;;;;;;;103.28;92.35;;;9.70;99.90;;;;;;5163826;27;20157;-85
2021/11/21 13:43:39;;;;;;;101.25;82.30;;;9.60;99.90;;;;;;5164142;27;20192;-85
2021/11/21 13:46:05;;;;;;;119.05;106.68;;;9.50;99.90;;;;;;5146668;27;20157;-85
2021/11/21 13:48:37;;;;;;;125.87;113.87;;;9.60;99.90;;;;;;5145405;27;20196;-85
2021/11/21 13:51:15;;;;;;;133.85;121.55;;;9.50;99.90;;;;;;5145445;27;20905;-85
2021/11/21 13:53:48;;;;;;;124.28;112.28;;;9.60;99.90;;;;;;5145821;27;20624;-85
2021/11/21 13:56:16;;;;;;;136.90;124.47;;;9.60;99.90;;;;;;5146429;27;20165;-85
2021/11/21 13:58:43;;;;;;;135.57;123.07;;;9.70;99.90;;;;;;5163986;27;20207;-85
2021/11/21 14:01:27;;;;;;;140.13;127.72;;;9.60;99.90;;;;;;5144747;27;20564;-85
2021/11/21 14:03:54;;;;;;;130.30;117.95;;;9.70;99.90;;;;;;5145752;27;20237;-85
2021/11/21 14:06:34;;;;;;;129.82;117.10;;;9.70;99.90;;;;;;5144978;27;20527;-85
2021/11/21 14:09:02;;;;;;;134.85;122.38;;;9.70;99.90;;;;;;5144622;27;20181;-85
2021/11/21 14:11:33;;;;;;;112.68;101.13;;;9.70;99.90;;;;;;5163641;27;20160;-85
2021/11/21 14:14:20;;;;;;;124.70;112.78;;;9.60;99.90;;;;;;5163434;27;20147;-85
2021/11/21 14:16:50;;;;;;;117.18;105.57;;;9.60;99.90;;;;;;5164196;27;20169;-87
2021/11/21 14:19:31;;;;;;;111.45;99.45;;;9.70;99.90;;;;;;5162943;27;20181;-86
2021/11/21 14:22:06;;;;;;;139.35;126.60;;;9.60;99.90;;;;;;5163056;27;20192;-86
2021/11/21 14:24:32;;;;;;;116.43;104.53;;;9.60;99.90;;;;;;5163127;27;20149;-86
2021/11/21 14:28:13;;;;;;;130.20;117.25;;;9.60;99.90;;;;;;5162833;27;20165;-86
2021/11/21 14:31:37;;;;;;;99.55;85.65;;;9.60;99.90;;;;;;5126160;27;20607;-85
2021/11/21 14:34:52;;;;;;;105.78;90.88;;;9.60;99.90;;;;;;5157485;27;20165;-85
2021/11/21 14:37:21;;;;;;;114.75;102.40;;;9.60;99.90;;;;;;5162983;27;20153;-85
2021/11/21 14:39:47;;;;;;;105.22;93.85;;;9.60;99.90;;;;;;5162953;27;20193;-86
2021/11/21 14:42:24;;;;;;;131.77;119.30;;;9.60;99.90;;;;;;5163495;27;20214;-86
2021/11/21 14:44:50;;;;;;;130.25;117.57;;;9.60;99.90;;;;;;5163631;27;20141;-86
2021/11/21 14:47:18;;;;;;;132.63;120.30;;;9.50;99.90;;;;;;5163739;27;20524;-86
2021/11/21 14:49:48;;;;;;;134.52;122.10;;;9.50;99.90;;;;;;5144256;27;20188;-86
2021/11/21 14:52:17;;;;;;;169.40;155.38;;;9.50;99.90;;;;;;5163033;27;20209;-86
2021/11/21 14:54:43;;;;;;;178.80;164.70;;;9.50;99.90;;;;;;5163261;27;20729;-86
2021/11/21 15:00:42;;;;;;;;;;;;;;;;;;;;;
2021/11/21 15:03:48;;;;;;;;;;;;;;;;;;;;;
2021/11/21 15:08:13;;;;;;;132.13;119.68;;;9.40;99.90;;;;;;5055478;28;20263;-84
2021/11/21 15:10:36;;;;;;;110.55;99.05;;;9.30;99.90;;;;;;4969346;28;20187;-84
2021/11/21 15:14:19;;;;;;;;;;;;;;;;;;;;;
2021/11/21 15:17:22;;;;;;;;;;;;;;;;;;;;;
2021/11/21 15:23:41;;;;;;;96.35;82.70;;;9.30;99.90;;;;;;4503713;26;20228;-84
2021/11/21 15:27:09;;;;;;;100.95;89.93;;;9.20;99.90;;;;;;4978130;28;20238;-84
2021/11/21 15:37:56;;;;;;;101.97;90.97;;;9.20;99.90;;;;;;4865462;29;20216;-84
2021/11/21 15:53:01;;;;;;;;;;;;;;;;;;;;;
2021/11/21 15:56:19;;;;;;;105.28;94.25;;;9.00;99.90;;;;;;5068360;28;20265;-84
2021/11/21 15:59:30;;;;;;;114.68;102.95;;;9.00;99.90;;;;;;5120121;28;20190;-84
2021/11/21 16:30:54;;;;;;;125.90;112.97;;;8.70;99.90;;;;;;5163604;22;20778;-85
2021/11/21 16:37:43;;;;;;;117.93;106.30;;;8.70;99.90;;;;;;5071521;28;20197;-84
2021/11/21 16:40:41;;;;;;;123.93;112.32;;;8.60;99.90;;;;;;4998070;28;20190;-85
2021/11/21 16:54:27;;;;;;;109.88;98.47;;;8.60;99.90;;;;;;4967973;28;20205;-84
2021/11/21 16:57:46;;;;;;;100.93;89.38;;;8.50;99.90;;;;;;4991784;28;20213;-84
2021/11/21 17:00:56;;;;;;;116.30;104.97;;;8.60;99.90;;;;;;4919880;29;20201;-84
2021/11/21 17:08:15;;;;;;;100.78;89.63;;;8.40;99.90;;;;;;4908130;29;20185;-85
2021/11/21 17:11:51;;;;;;;101.00;89.55;;;8.30;99.90;;;;;;4865400;29;20186;-85
2021/11/21 17:25:37;;;;;;;;;;;;;;;;;;;;;
2021/11/21 17:39:47;;;;;;;135.18;122.28;;;8.20;99.90;;;;;;4865734;29;20243;-85
2021/11/21 17:43:09;;;;;;;;;;;;;;;;;;;;;
2021/11/21 17:46:10;;;;;;;110.22;98.80;;;8.10;99.90;;;;;;4854557;29;20294;-85
2021/11/21 17:56:04;;;;;;;;;;;;;;;;;;;;;
2021/11/21 17:59:49;;;;;;;;;;;;;;;;;;;;;
2021/11/21 18:06:17;;;;;;;;;;;;;;;;;;;;;
2021/11/21 18:26:52;;;;;;;125.93;113.38;;;8.00;99.90;;;;;;4939183;29;20235;-85
2021/11/21 18:33:05;;;;;;;124.40;112.15;;;8.00;99.90;;;;;;4950845;28;20201;-85
2021/11/21 18:39:46;;;;;;;123.00;111.43;;;8.00;99.90;;;;;;5025829;28;20222;-85
2021/11/21 18:43:10;;;;;;;121.97;110.32;;;8.00;99.90;;;;;;5012514;28;20203;-85
2021/11/21 18:45:48;;;;;;;129.30;117.22;;;8.00;99.90;;;;;;5053693;28;20168;-85
2021/11/21 18:48:20;;;;;;;111.72;100.47;;;8.00;99.90;;;;;;5061515;28;20167;-85
2021/11/21 18:50:55;;;;;;;125.28;113.22;;;8.00;99.90;;;;;;5080672;28;20670;-85
2021/11/21 18:53:52;;;;;;;122.25;110.40;;;8.00;99.90;;;;;;5080730;28;20209;-85
2021/11/21 18:56:26;;;;;;;122.55;110.85;;;8.00;99.90;;;;;;5042021;28;20176;-84
2021/11/21 18:59:19;;;;;;;132.13;119.82;;;7.90;99.90;;;;;;5062988;28;20195;-84
2021/11/21 19:01:47;;;;;;;123.38;111.30;;;7.90;99.90;;;;;;5080113;28;20260;-85
2021/11/21 19:04:27;;;;;;;109.32;98.25;;;7.80;99.90;;;;;;5060265;28;20172;-84
2021/11/21 19:07:21;;;;;;;103.63;92.50;;;7.80;99.90;;;;;;5062168;28;20174;-85
2021/11/21 19:09:53;;;;;;;108.88;97.80;;;7.80;99.90;;;;;;5061838;28;20184;-84
2021/11/21 19:12:22;;;;;;;103.13;92.00;;;7.70;99.90;;;;;;5063413;28;20168;-84
2021/11/21 19:15:01;;;;;;;97.28;85.22;;;7.60;99.90;;;;;;5062888;28;20176;-85
2021/11/21 19:17:37;;;;;;;91.57;71.45;;;7.60;99.90;;;;;;5061497;28;20251;-85
2021/11/21 19:20:28;;;;;;;134.32;105.85;;;7.60;99.90;;;;;;5063160;28;20681;-84